CheckWX is a tool to help pilots better visualize weather data.  It is not intended as a substitute for an official pre-flight weather briefing.

09:19:14 UTC

KPGD METAR
Punta Gorda Airport
Punta Gorda, Florida, USA
Current

26 mins ago

KPGD 220853Z AUTO 13004KT 10SM BKN120 23/21 A3000 RMK AO2 SLP160 T02330211 57005
Observed
May-22 @ 08:53 UTC
Wind
  • 130° at 4 KTS
Visibility
10 SM
Flight Rules
VFR
Cloud Levels
  • Broken at 12,000' AGL
Temperature
23°C / 73°F
Dewpoint
21°C / 70°F
Humidity
89%
Altimeter
30" Hg
Pressure
1015.92 hPa
Previous

1 hour ago

KPGD 220753Z AUTO 09003KT 10SM FEW120 23/21 A3001 RMK AO2 SLP162 T02280211
Observed
May-22 @ 07:53 UTC
Wind
  • 090° at 3 KTS
Visibility
10 SM
Flight Rules
VFR
Cloud Levels
  • Few at 12,000' AGL
Temperature
23°C / 73°F
Dewpoint
21°C / 70°F
Humidity
89%
Altimeter
30.01" Hg
Pressure
1016.22 hPa
Previous

2 hours ago

KPGD 220653Z AUTO 11003KT 10SM BKN110 23/21 A3001 RMK AO2 SLP163 T02280206
Observed
May-22 @ 06:53 UTC
Wind
  • 110° at 3 KTS
Visibility
10 SM
Flight Rules
VFR
Cloud Levels
  • Broken at 11,000' AGL
Temperature
23°C / 73°F
Dewpoint
21°C / 70°F
Humidity
89%
Altimeter
30.01" Hg
Pressure
1016.22 hPa